sensor_id;sensor_type;location;lat;lon;timestamp;P1;durP1;ratioP1;P2;durP2;ratioP2
69511;SDS011;56709;52.036;4.644;2023-02-28T00:00:44;6.97;;;3.17;;
69511;SDS011;56709;52.036;4.644;2023-02-28T00:03:10;4.55;;;2.53;;
69511;SDS011;56709;52.036;4.644;2023-02-28T00:05:35;4.60;;;2.75;;
69511;SDS011;56709;52.036;4.644;2023-02-28T00:08:01;5.63;;;2.67;;
69511;SDS011;56709;52.036;4.644;2023-02-28T00:10:27;7.50;;;2.75;;
69511;SDS011;56709;52.036;4.644;2023-02-28T00:12:55;4.80;;;2.83;;
69511;SDS011;56709;52.036;4.644;2023-02-28T00:15:23;7.15;;;2.55;;
69511;SDS011;56709;52.036;4.644;2023-02-28T00:17:49;8.68;;;2.90;;
69511;SDS011;56709;52.036;4.644;2023-02-28T00:20:15;5.90;;;2.70;;
69511;SDS011;56709;52.036;4.644;2023-02-28T00:22:50;6.50;;;2.47;;
69511;SDS011;56709;52.036;4.644;2023-02-28T00:25:18;9.10;;;2.17;;
69511;SDS011;56709;52.036;4.644;2023-02-28T00:27:45;6.72;;;2.40;;
69511;SDS011;56709;52.036;4.644;2023-02-28T00:30:13;4.63;;;2.10;;
69511;SDS011;56709;52.036;4.644;2023-02-28T00:32:40;4.47;;;1.98;;
69511;SDS011;56709;52.036;4.644;2023-02-28T00:35:06;4.28;;;1.80;;
69511;SDS011;56709;52.036;4.644;2023-02-28T00:37:32;4.70;;;2.28;;
69511;SDS011;56709;52.036;4.644;2023-02-28T00:39:58;5.85;;;2.53;;
69511;SDS011;56709;52.036;4.644;2023-02-28T00:42:24;5.07;;;2.58;;
69511;SDS011;56709;52.036;4.644;2023-02-28T00:44:49;6.10;;;2.15;;
69511;SDS011;56709;52.036;4.644;2023-02-28T00:47:15;4.38;;;2.45;;
69511;SDS011;56709;52.036;4.644;2023-02-28T00:49:40;5.95;;;2.20;;
69511;SDS011;56709;52.036;4.644;2023-02-28T00:52:06;6.50;;;2.40;;
69511;SDS011;56709;52.036;4.644;2023-02-28T00:54:31;3.67;;;2.20;;
69511;SDS011;56709;52.036;4.644;2023-02-28T00:56:57;7.10;;;2.20;;
69511;SDS011;56709;52.036;4.644;2023-02-28T00:59:22;5.93;;;2.20;;
69511;SDS011;56709;52.036;4.644;2023-02-28T01:01:47;6.50;;;2.35;;
69511;SDS011;56709;52.036;4.644;2023-02-28T01:04:13;5.43;;;2.55;;
69511;SDS011;56709;52.036;4.644;2023-02-28T01:06:39;2.97;;;2.00;;
69511;SDS011;56709;52.036;4.644;2023-02-28T01:09:05;6.03;;;3.00;;
69511;SDS011;56709;52.036;4.644;2023-02-28T01:11:31;6.70;;;2.20;;
69511;SDS011;56709;52.036;4.644;2023-02-28T01:13:57;5.25;;;2.03;;
69511;SDS011;56709;52.036;4.644;2023-02-28T01:16:22;5.82;;;2.50;;
69511;SDS011;56709;52.036;4.644;2023-02-28T01:18:48;8.85;;;2.88;;
69511;SDS011;56709;52.036;4.644;2023-02-28T01:21:15;3.75;;;2.20;;
69511;SDS011;56709;52.036;4.644;2023-02-28T01:23:42;6.43;;;2.13;;
69511;SDS011;56709;52.036;4.644;2023-02-28T01:26:09;3.72;;;2.28;;
69511;SDS011;56709;52.036;4.644;2023-02-28T01:28:36;4.90;;;2.50;;
69511;SDS011;56709;52.036;4.644;2023-02-28T01:31:01;6.75;;;2.70;;
69511;SDS011;56709;52.036;4.644;2023-02-28T01:33:27;7.35;;;3.17;;
69511;SDS011;56709;52.036;4.644;2023-02-28T01:36:07;7.25;;;2.75;;
69511;SDS011;56709;52.036;4.644;2023-02-28T01:38:37;7.88;;;2.72;;
69511;SDS011;56709;52.036;4.644;2023-02-28T01:41:02;4.07;;;2.33;;
69511;SDS011;56709;52.036;4.644;2023-02-28T01:43:29;7.55;;;2.35;;
69511;SDS011;56709;52.036;4.644;2023-02-28T01:46:15;4.57;;;2.60;;
69511;SDS011;56709;52.036;4.644;2023-02-28T01:48:45;8.65;;;2.70;;
69511;SDS011;56709;52.036;4.644;2023-02-28T01:51:15;4.25;;;2.33;;
69511;SDS011;56709;52.036;4.644;2023-02-28T01:53:44;8.55;;;2.22;;
69511;SDS011;56709;52.036;4.644;2023-02-28T01:56:12;4.47;;;2.33;;
69511;SDS011;56709;52.036;4.644;2023-02-28T01:58:45;4.88;;;2.60;;
69511;SDS011;56709;52.036;4.644;2023-02-28T02:01:13;4.80;;;2.50;;
69511;SDS011;56709;52.036;4.644;2023-02-28T02:04:04;4.13;;;2.50;;
69511;SDS011;56709;52.036;4.644;2023-02-28T02:06:32;4.53;;;2.92;;
69511;SDS011;56709;52.036;4.644;2023-02-28T02:09:00;5.55;;;2.42;;
69511;SDS011;56709;52.036;4.644;2023-02-28T02:11:25;3.90;;;2.65;;
69511;SDS011;56709;52.036;4.644;2023-02-28T02:17:36;5.90;;;2.70;;
69511;SDS011;56709;52.036;4.644;2023-02-28T02:25:43;5.22;;;2.40;;
69511;SDS011;56709;52.036;4.644;2023-02-28T02:28:22;6.30;;;2.63;;
69511;SDS011;56709;52.036;4.644;2023-02-28T02:31:08;9.48;;;2.97;;
69511;SDS011;56709;52.036;4.644;2023-02-28T02:36:48;4.55;;;2.40;;
69511;SDS011;56709;52.036;4.644;2023-02-28T02:41:51;10.10;;;3.20;;
69511;SDS011;56709;52.036;4.644;2023-02-28T02:46:48;5.15;;;2.45;;
69511;SDS011;56709;52.036;4.644;2023-02-28T02:49:24;3.78;;;2.53;;
69511;SDS011;56709;52.036;4.644;2023-02-28T02:51:52;4.22;;;2.55;;
69511;SDS011;56709;52.036;4.644;2023-02-28T02:54:32;8.47;;;2.87;;
69511;SDS011;56709;52.036;4.644;2023-02-28T02:57:01;6.00;;;3.13;;
69511;SDS011;56709;52.036;4.644;2023-02-28T02:59:30;8.80;;;2.80;;
69511;SDS011;56709;52.036;4.644;2023-02-28T03:01:56;7.78;;;2.75;;
69511;SDS011;56709;52.036;4.644;2023-02-28T03:04:24;6.25;;;3.15;;
69511;SDS011;56709;52.036;4.644;2023-02-28T03:06:50;8.52;;;3.00;;
69511;SDS011;56709;52.036;4.644;2023-02-28T03:09:20;5.85;;;2.83;;
69511;SDS011;56709;52.036;4.644;2023-02-28T03:11:46;8.98;;;3.38;;
69511;SDS011;56709;52.036;4.644;2023-02-28T03:19:36;7.30;;;3.03;;
69511;SDS011;56709;52.036;4.644;2023-02-28T03:27:24;7.70;;;3.50;;
69511;SDS011;56709;52.036;4.644;2023-02-28T03:30:10;11.45;;;3.80;;
69511;SDS011;56709;52.036;4.644;2023-02-28T03:32:58;8.98;;;4.20;;
69511;SDS011;56709;52.036;4.644;2023-02-28T03:35:34;10.10;;;4.63;;
69511;SDS011;56709;52.036;4.644;2023-02-28T03:38:59;8.63;;;3.70;;
69511;SDS011;56709;52.036;4.644;2023-02-28T03:41:20;9.90;;;3.90;;
69511;SDS011;56709;52.036;4.644;2023-02-28T03:43:55;8.80;;;3.80;;
69511;SDS011;56709;52.036;4.644;2023-02-28T03:46:23;8.05;;;4.20;;
69511;SDS011;56709;52.036;4.644;2023-02-28T03:48:55;8.80;;;4.20;;
69511;SDS011;56709;52.036;4.644;2023-02-28T03:51:26;7.68;;;3.95;;
69511;SDS011;56709;52.036;4.644;2023-02-28T03:53:53;6.90;;;3.87;;
69511;SDS011;56709;52.036;4.644;2023-02-28T03:56:21;6.78;;;3.78;;
69511;SDS011;56709;52.036;4.644;2023-02-28T04:01:21;26.77;;;11.15;;
69511;SDS011;56709;52.036;4.644;2023-02-28T04:03:49;14.48;;;5.88;;
69511;SDS011;56709;52.036;4.644;2023-02-28T04:06:16;14.20;;;5.93;;
69511;SDS011;56709;52.036;4.644;2023-02-28T04:08:44;13.13;;;4.57;;
69511;SDS011;56709;52.036;4.644;2023-02-28T04:11:16;7.80;;;4.20;;
69511;SDS011;56709;52.036;4.644;2023-02-28T04:13:43;9.52;;;4.20;;
69511;SDS011;56709;52.036;4.644;2023-02-28T04:16:09;6.63;;;4.20;;
69511;SDS011;56709;52.036;4.644;2023-02-28T04:18:40;7.97;;;4.05;;
69511;SDS011;56709;52.036;4.644;2023-02-28T04:21:08;6.88;;;4.05;;
69511;SDS011;56709;52.036;4.644;2023-02-28T04:23:33;7.50;;;3.80;;
69511;SDS011;56709;52.036;4.644;2023-02-28T04:25:59;7.43;;;4.00;;
69511;SDS011;56709;52.036;4.644;2023-02-28T04:28:24;8.50;;;3.90;;
69511;SDS011;56709;52.036;4.644;2023-02-28T04:31:00;7.45;;;3.85;;
69511;SDS011;56709;52.036;4.644;2023-02-28T04:33:27;7.93;;;4.22;;
69511;SDS011;56709;52.036;4.644;2023-02-28T04:38:25;6.15;;;3.83;;
69511;SDS011;56709;52.036;4.644;2023-02-28T04:40:51;8.80;;;4.38;;
69511;SDS011;56709;52.036;4.644;2023-02-28T04:43:16;8.13;;;4.22;;
69511;SDS011;56709;52.036;4.644;2023-02-28T04:45:42;6.63;;;3.90;;
69511;SDS011;56709;52.036;4.644;2023-02-28T04:48:07;8.35;;;4.70;;
69511;SDS011;56709;52.036;4.644;2023-02-28T04:50:32;11.65;;;5.13;;
69511;SDS011;56709;52.036;4.644;2023-02-28T04:52:58;7.70;;;4.57;;
69511;SDS011;56709;52.036;4.644;2023-02-28T04:55:23;13.27;;;5.05;;
69511;SDS011;56709;52.036;4.644;2023-02-28T04:57:49;10.82;;;5.50;;
69511;SDS011;56709;52.036;4.644;2023-02-28T05:00:14;14.13;;;6.07;;
69511;SDS011;56709;52.036;4.644;2023-02-28T05:02:41;10.93;;;4.57;;
69511;SDS011;56709;52.036;4.644;2023-02-28T05:05:07;11.98;;;5.13;;
69511;SDS011;56709;52.036;4.644;2023-02-28T05:07:32;12.55;;;5.43;;
69511;SDS011;56709;52.036;4.644;2023-02-28T05:09:58;11.35;;;6.18;;
69511;SDS011;56709;52.036;4.644;2023-02-28T05:12:23;10.15;;;5.57;;
69511;SDS011;56709;52.036;4.644;2023-02-28T05:14:48;10.15;;;5.50;;
69511;SDS011;56709;52.036;4.644;2023-02-28T05:17:14;16.92;;;6.93;;
69511;SDS011;56709;52.036;4.644;2023-02-28T05:19:39;14.15;;;6.47;;
69511;SDS011;56709;52.036;4.644;2023-02-28T05:22:04;11.02;;;5.88;;
69511;SDS011;56709;52.036;4.644;2023-02-28T05:24:35;10.98;;;5.45;;
69511;SDS011;56709;52.036;4.644;2023-02-28T05:27:00;11.93;;;6.20;;
69511;SDS011;56709;52.036;4.644;2023-02-28T05:29:26;10.50;;;6.03;;
69511;SDS011;56709;52.036;4.644;2023-02-28T05:31:51;11.80;;;5.72;;
69511;SDS011;56709;52.036;4.644;2023-02-28T05:34:17;10.32;;;5.70;;
69511;SDS011;56709;52.036;4.644;2023-02-28T05:36:42;11.52;;;6.35;;
69511;SDS011;56709;52.036;4.644;2023-02-28T05:39:08;11.27;;;6.03;;
69511;SDS011;56709;52.036;4.644;2023-02-28T05:41:37;10.38;;;6.40;;
69511;SDS011;56709;52.036;4.644;2023-02-28T05:44:06;10.73;;;5.97;;
69511;SDS011;56709;52.036;4.644;2023-02-28T05:46:31;9.77;;;6.45;;
69511;SDS011;56709;52.036;4.644;2023-02-28T05:48:57;15.02;;;6.70;;
69511;SDS011;56709;52.036;4.644;2023-02-28T05:51:25;9.60;;;6.35;;
69511;SDS011;56709;52.036;4.644;2023-02-28T05:53:50;9.38;;;5.93;;
69511;SDS011;56709;52.036;4.644;2023-02-28T05:56:16;13.23;;;6.60;;
69511;SDS011;56709;52.036;4.644;2023-02-28T05:58:41;12.07;;;6.38;;
69511;SDS011;56709;52.036;4.644;2023-02-28T06:01:52;10.70;;;6.38;;
69511;SDS011;56709;52.036;4.644;2023-02-28T06:03:55;16.58;;;6.95;;
69511;SDS011;56709;52.036;4.644;2023-02-28T06:06:20;11.18;;;7.05;;
69511;SDS011;56709;52.036;4.644;2023-02-28T06:08:46;10.38;;;6.75;;
69511;SDS011;56709;52.036;4.644;2023-02-28T06:11:11;11.70;;;6.78;;
69511;SDS011;56709;52.036;4.644;2023-02-28T06:13:37;9.32;;;4.97;;
69511;SDS011;56709;52.036;4.644;2023-02-28T06:16:02;10.98;;;5.55;;
69511;SDS011;56709;52.036;4.644;2023-02-28T06:18:27;8.93;;;4.72;;
69511;SDS011;56709;52.036;4.644;2023-02-28T06:20:53;8.07;;;4.35;;
69511;SDS011;56709;52.036;4.644;2023-02-28T06:23:22;7.53;;;4.57;;
69511;SDS011;56709;52.036;4.644;2023-02-28T06:25:48;9.95;;;4.70;;
69511;SDS011;56709;52.036;4.644;2023-02-28T06:28:14;7.72;;;4.53;;
69511;SDS011;56709;52.036;4.644;2023-02-28T06:30:40;7.78;;;3.78;;
69511;SDS011;56709;52.036;4.644;2023-02-28T06:33:05;7.60;;;4.20;;
69511;SDS011;56709;52.036;4.644;2023-02-28T06:35:30;9.10;;;4.15;;
69511;SDS011;56709;52.036;4.644;2023-02-28T06:37:56;5.68;;;3.80;;
69511;SDS011;56709;52.036;4.644;2023-02-28T06:40:21;6.05;;;4.07;;
69511;SDS011;56709;52.036;4.644;2023-02-28T06:42:47;6.07;;;3.63;;
69511;SDS011;56709;52.036;4.644;2023-02-28T06:45:12;6.53;;;4.20;;
69511;SDS011;56709;52.036;4.644;2023-02-28T06:47:38;6.50;;;4.03;;
69511;SDS011;56709;52.036;4.644;2023-02-28T06:50:05;6.80;;;4.50;;
69511;SDS011;56709;52.036;4.644;2023-02-28T06:52:31;7.43;;;4.63;;
69511;SDS011;56709;52.036;4.644;2023-02-28T06:54:57;7.07;;;4.55;;
69511;SDS011;56709;52.036;4.644;2023-02-28T06:57:27;7.05;;;5.20;;
69511;SDS011;56709;52.036;4.644;2023-02-28T06:59:55;9.60;;;4.95;;
69511;SDS011;56709;52.036;4.644;2023-02-28T07:02:21;12.00;;;5.10;;
69511;SDS011;56709;52.036;4.644;2023-02-28T07:04:46;9.05;;;4.65;;
69511;SDS011;56709;52.036;4.644;2023-02-28T07:07:11;7.30;;;4.43;;
69511;SDS011;56709;52.036;4.644;2023-02-28T07:09:37;11.45;;;5.45;;
69511;SDS011;56709;52.036;4.644;2023-02-28T07:12:02;8.60;;;4.72;;
69511;SDS011;56709;52.036;4.644;2023-02-28T07:14:28;7.22;;;5.13;;
69511;SDS011;56709;52.036;4.644;2023-02-28T07:16:53;7.78;;;4.78;;
69511;SDS011;56709;52.036;4.644;2023-02-28T07:19:19;10.63;;;5.03;;
69511;SDS011;56709;52.036;4.644;2023-02-28T07:21:44;11.48;;;5.57;;
69511;SDS011;56709;52.036;4.644;2023-02-28T07:24:10;8.68;;;4.80;;
69511;SDS011;56709;52.036;4.644;2023-02-28T07:26:35;8.90;;;5.07;;
69511;SDS011;56709;52.036;4.644;2023-02-28T07:29:01;10.80;;;5.55;;
69511;SDS011;56709;52.036;4.644;2023-02-28T07:31:27;8.40;;;5.68;;
69511;SDS011;56709;52.036;4.644;2023-02-28T07:33:52;9.85;;;5.05;;
69511;SDS011;56709;52.036;4.644;2023-02-28T07:36:18;8.50;;;5.70;;
69511;SDS011;56709;52.036;4.644;2023-02-28T07:38:45;7.95;;;5.70;;
69511;SDS011;56709;52.036;4.644;2023-02-28T07:41:13;11.48;;;6.07;;
69511;SDS011;56709;52.036;4.644;2023-02-28T07:43:39;9.73;;;6.00;;
69511;SDS011;56709;52.036;4.644;2023-02-28T07:46:06;12.98;;;6.13;;
69511;SDS011;56709;52.036;4.644;2023-02-28T07:48:33;8.35;;;6.10;;
69511;SDS011;56709;52.036;4.644;2023-02-28T07:50:59;11.65;;;7.10;;
69511;SDS011;56709;52.036;4.644;2023-02-28T07:53:25;9.65;;;6.28;;
69511;SDS011;56709;52.036;4.644;2023-02-28T07:55:54;12.93;;;6.30;;
69511;SDS011;56709;52.036;4.644;2023-02-28T07:58:20;17.92;;;8.55;;
69511;SDS011;56709;52.036;4.644;2023-02-28T08:00:45;13.15;;;7.70;;
69511;SDS011;56709;52.036;4.644;2023-02-28T08:03:11;11.48;;;7.40;;
69511;SDS011;56709;52.036;4.644;2023-02-28T08:05:38;12.02;;;7.40;;
69511;SDS011;56709;52.036;4.644;2023-02-28T08:08:05;13.55;;;7.70;;
69511;SDS011;56709;52.036;4.644;2023-02-28T08:10:31;13.45;;;7.03;;
69511;SDS011;56709;52.036;4.644;2023-02-28T08:12:57;11.15;;;6.28;;
69511;SDS011;56709;52.036;4.644;2023-02-28T08:15:22;10.32;;;6.15;;
69511;SDS011;56709;52.036;4.644;2023-02-28T08:17:47;14.45;;;6.88;;
69511;SDS011;56709;52.036;4.644;2023-02-28T08:20:13;10.35;;;6.57;;
69511;SDS011;56709;52.036;4.644;2023-02-28T08:22:38;11.32;;;6.93;;
69511;SDS011;56709;52.036;4.644;2023-02-28T08:25:04;11.57;;;6.97;;
69511;SDS011;56709;52.036;4.644;2023-02-28T08:27:32;12.05;;;7.10;;
69511;SDS011;56709;52.036;4.644;2023-02-28T08:29:57;11.73;;;7.43;;
69511;SDS011;56709;52.036;4.644;2023-02-28T08:32:22;11.48;;;6.72;;
69511;SDS011;56709;52.036;4.644;2023-02-28T08:34:48;17.85;;;7.63;;
69511;SDS011;56709;52.036;4.644;2023-02-28T08:37:13;11.35;;;6.65;;
69511;SDS011;56709;52.036;4.644;2023-02-28T08:39:39;12.48;;;7.68;;
69511;SDS011;56709;52.036;4.644;2023-02-28T08:42:04;11.55;;;7.65;;
69511;SDS011;56709;52.036;4.644;2023-02-28T08:44:30;12.80;;;7.68;;
69511;SDS011;56709;52.036;4.644;2023-02-28T08:46:55;13.95;;;8.50;;
69511;SDS011;56709;52.036;4.644;2023-02-28T08:49:20;14.35;;;7.85;;
69511;SDS011;56709;52.036;4.644;2023-02-28T08:51:46;16.55;;;7.95;;
69511;SDS011;56709;52.036;4.644;2023-02-28T08:54:11;12.18;;;6.78;;
69511;SDS011;56709;52.036;4.644;2023-02-28T08:56:37;13.98;;;7.50;;
69511;SDS011;56709;52.036;4.644;2023-02-28T08:59:03;12.43;;;7.93;;
69511;SDS011;56709;52.036;4.644;2023-02-28T09:01:29;14.38;;;8.27;;
69511;SDS011;56709;52.036;4.644;2023-02-28T09:03:56;13.35;;;7.63;;
69511;SDS011;56709;52.036;4.644;2023-02-28T09:06:23;15.23;;;8.30;;
69511;SDS011;56709;52.036;4.644;2023-02-28T09:08:51;15.98;;;8.48;;
69511;SDS011;56709;52.036;4.644;2023-02-28T09:11:16;12.98;;;8.23;;
69511;SDS011;56709;52.036;4.644;2023-02-28T09:13:43;14.55;;;8.98;;
69511;SDS011;56709;52.036;4.644;2023-02-28T09:16:10;14.57;;;8.30;;
69511;SDS011;56709;52.036;4.644;2023-02-28T09:18:37;13.57;;;9.07;;
69511;SDS011;56709;52.036;4.644;2023-02-28T09:21:07;16.42;;;9.13;;
69511;SDS011;56709;52.036;4.644;2023-02-28T09:23:33;14.25;;;8.85;;
69511;SDS011;56709;52.036;4.644;2023-02-28T09:25:59;12.68;;;7.38;;
69511;SDS011;56709;52.036;4.644;2023-02-28T09:28:24;14.02;;;7.10;;
69511;SDS011;56709;52.036;4.644;2023-02-28T09:30:51;12.65;;;7.57;;
69511;SDS011;56709;52.036;4.644;2023-02-28T09:33:18;16.88;;;7.13;;
69511;SDS011;56709;52.036;4.644;2023-02-28T09:35:46;12.13;;;6.85;;
69511;SDS011;56709;52.036;4.644;2023-02-28T09:38:14;10.60;;;5.85;;
69511;SDS011;56709;52.036;4.644;2023-02-28T09:40:49;10.68;;;6.63;;
69511;SDS011;56709;52.036;4.644;2023-02-28T09:43:16;13.75;;;5.70;;
69511;SDS011;56709;52.036;4.644;2023-02-28T09:45:46;12.85;;;6.82;;
69511;SDS011;56709;52.036;4.644;2023-02-28T09:48:37;10.65;;;6.10;;
69511;SDS011;56709;52.036;4.644;2023-02-28T09:56:39;9.80;;;6.00;;
69511;SDS011;56709;52.036;4.644;2023-02-28T10:01:57;11.20;;;6.38;;
69511;SDS011;56709;52.036;4.644;2023-02-28T10:10:21;9.98;;;5.18;;
69511;SDS011;56709;52.036;4.644;2023-02-28T10:12:51;11.90;;;6.05;;
69511;SDS011;56709;52.036;4.644;2023-02-28T10:15:18;10.68;;;5.88;;
69511;SDS011;56709;52.036;4.644;2023-02-28T10:17:47;8.57;;;5.15;;
69511;SDS011;56709;52.036;4.644;2023-02-28T10:20:20;8.60;;;5.97;;
69511;SDS011;56709;52.036;4.644;2023-02-28T10:23:02;8.52;;;5.57;;
69511;SDS011;56709;52.036;4.644;2023-02-28T10:25:32;8.55;;;4.95;;
69511;SDS011;56709;52.036;4.644;2023-02-28T10:28:01;6.68;;;4.50;;
69511;SDS011;56709;52.036;4.644;2023-02-28T10:30:33;7.63;;;4.53;;
69511;SDS011;56709;52.036;4.644;2023-02-28T10:33:00;6.63;;;4.27;;
69511;SDS011;56709;52.036;4.644;2023-02-28T10:35:26;9.25;;;4.50;;
69511;SDS011;56709;52.036;4.644;2023-02-28T10:37:55;6.03;;;4.28;;
69511;SDS011;56709;52.036;4.644;2023-02-28T10:45:21;5.40;;;3.80;;
69511;SDS011;56709;52.036;4.644;2023-02-28T10:48:01;6.95;;;3.35;;
69511;SDS011;56709;52.036;4.644;2023-02-28T10:50:34;6.90;;;3.63;;
69511;SDS011;56709;52.036;4.644;2023-02-28T10:55:35;7.82;;;3.40;;
69511;SDS011;56709;52.036;4.644;2023-02-28T10:58:01;5.25;;;3.38;;
69511;SDS011;56709;52.036;4.644;2023-02-28T11:00:31;4.53;;;3.22;;
69511;SDS011;56709;52.036;4.644;2023-02-28T11:02:58;6.88;;;3.70;;
69511;SDS011;56709;52.036;4.644;2023-02-28T11:05:28;4.70;;;3.60;;
69511;SDS011;56709;52.036;4.644;2023-02-28T11:08:20;3.42;;;2.85;;
69511;SDS011;56709;52.036;4.644;2023-02-28T11:10:45;3.83;;;3.00;;
69511;SDS011;56709;52.036;4.644;2023-02-28T11:13:16;4.95;;;2.80;;
69511;SDS011;56709;52.036;4.644;2023-02-28T11:15:45;5.45;;;2.80;;
69511;SDS011;56709;52.036;4.644;2023-02-28T11:21:21;4.95;;;2.65;;
69511;SDS011;56709;52.036;4.644;2023-02-28T11:23:51;4.75;;;2.53;;
69511;SDS011;56709;52.036;4.644;2023-02-28T11:29:25;4.72;;;2.50;;
69511;SDS011;56709;52.036;4.644;2023-02-28T11:34:34;3.85;;;2.30;;
69511;SDS011;56709;52.036;4.644;2023-02-28T11:37:00;4.55;;;2.50;;
69511;SDS011;56709;52.036;4.644;2023-02-28T11:39:26;4.83;;;2.20;;
69511;SDS011;56709;52.036;4.644;2023-02-28T11:44:55;4.05;;;2.80;;
69511;SDS011;56709;52.036;4.644;2023-02-28T11:52:55;3.00;;;2.55;;
69511;SDS011;56709;52.036;4.644;2023-02-28T12:03:52;3.30;;;2.33;;
69511;SDS011;56709;52.036;4.644;2023-02-28T12:17:05;3.95;;;2.65;;
69511;SDS011;56709;52.036;4.644;2023-02-28T12:27:26;5.78;;;2.35;;
69511;SDS011;56709;52.036;4.644;2023-02-28T12:34:57;2.15;;;1.90;;
69511;SDS011;56709;52.036;4.644;2023-02-28T12:37:31;2.80;;;1.95;;
69511;SDS011;56709;52.036;4.644;2023-02-28T12:40:06;3.50;;;2.38;;
69511;SDS011;56709;52.036;4.644;2023-02-28T12:42:42;2.95;;;2.00;;
69511;SDS011;56709;52.036;4.644;2023-02-28T12:45:20;5.13;;;2.20;;
69511;SDS011;56709;52.036;4.644;2023-02-28T12:47:50;2.75;;;1.98;;
69511;SDS011;56709;52.036;4.644;2023-02-28T12:50:18;3.00;;;2.10;;
69511;SDS011;56709;52.036;4.644;2023-02-28T12:58:41;5.05;;;2.30;;
69511;SDS011;56709;52.036;4.644;2023-02-28T13:10:06;3.05;;;2.20;;
69511;SDS011;56709;52.036;4.644;2023-02-28T13:12:32;7.20;;;2.20;;
69511;SDS011;56709;52.036;4.644;2023-02-28T13:15:08;4.68;;;3.92;;
69511;SDS011;56709;52.036;4.644;2023-02-28T13:17:47;3.75;;;1.95;;
69511;SDS011;56709;52.036;4.644;2023-02-28T13:20:18;2.72;;;2.20;;
69511;SDS011;56709;52.036;4.644;2023-02-28T13:23:04;3.60;;;2.60;;
69511;SDS011;56709;52.036;4.644;2023-02-28T13:26:05;2.95;;;2.25;;
69511;SDS011;56709;52.036;4.644;2023-02-28T13:31:14;5.35;;;2.22;;
69511;SDS011;56709;52.036;4.644;2023-02-28T13:38:41;4.53;;;2.53;;
69511;SDS011;56709;52.036;4.644;2023-02-28T13:59:45;3.33;;;2.40;;
69511;SDS011;56709;52.036;4.644;2023-02-28T14:05:05;4.03;;;2.30;;
69511;SDS011;56709;52.036;4.644;2023-02-28T14:07:33;4.32;;;2.17;;
69511;SDS011;56709;52.036;4.644;2023-02-28T14:10:06;4.07;;;2.60;;
69511;SDS011;56709;52.036;4.644;2023-02-28T14:15:30;2.92;;;2.25;;
69511;SDS011;56709;52.036;4.644;2023-02-28T14:18:01;3.95;;;2.35;;
69511;SDS011;56709;52.036;4.644;2023-02-28T14:20:29;3.83;;;2.40;;
69511;SDS011;56709;52.036;4.644;2023-02-28T14:23:04;3.33;;;1.98;;
69511;SDS011;56709;52.036;4.644;2023-02-28T14:26:01;3.28;;;2.25;;
69511;SDS011;56709;52.036;4.644;2023-02-28T14:31:37;4.38;;;2.10;;
69511;SDS011;56709;52.036;4.644;2023-02-28T14:34:14;4.10;;;2.00;;
69511;SDS011;56709;52.036;4.644;2023-02-28T14:36:48;2.95;;;2.08;;
69511;SDS011;56709;52.036;4.644;2023-02-28T14:39:16;4.20;;;2.23;;
69511;SDS011;56709;52.036;4.644;2023-02-28T14:41:44;2.95;;;1.98;;
69511;SDS011;56709;52.036;4.644;2023-02-28T14:44:23;3.13;;;2.07;;
69511;SDS011;56709;52.036;4.644;2023-02-28T14:47:11;3.10;;;2.13;;
69511;SDS011;56709;52.036;4.644;2023-02-28T14:49:44;4.22;;;1.92;;
69511;SDS011;56709;52.036;4.644;2023-02-28T14:52:17;2.53;;;1.83;;
69511;SDS011;56709;52.036;4.644;2023-02-28T14:54:44;2.95;;;1.88;;
69511;SDS011;56709;52.036;4.644;2023-02-28T15:02:42;2.50;;;2.10;;
69511;SDS011;56709;52.036;4.644;2023-02-28T15:07:42;2.38;;;1.90;;
69511;SDS011;56709;52.036;4.644;2023-02-28T15:15:45;5.30;;;2.35;;
69511;SDS011;56709;52.036;4.644;2023-02-28T15:18:54;2.70;;;2.20;;
69511;SDS011;56709;52.036;4.644;2023-02-28T15:21:21;4.80;;;2.20;;
69511;SDS011;56709;52.036;4.644;2023-02-28T15:23:53;4.57;;;2.47;;
69511;SDS011;56709;52.036;4.644;2023-02-28T15:26:21;4.70;;;2.40;;
69511;SDS011;56709;52.036;4.644;2023-02-28T15:28:50;3.25;;;2.20;;
69511;SDS011;56709;52.036;4.644;2023-02-28T15:31:22;2.60;;;2.03;;
69511;SDS011;56709;52.036;4.644;2023-02-28T15:33:52;5.88;;;2.20;;
69511;SDS011;56709;52.036;4.644;2023-02-28T15:36:19;4.15;;;2.53;;
69511;SDS011;56709;52.036;4.644;2023-02-28T15:38:51;3.53;;;2.35;;
69511;SDS011;56709;52.036;4.644;2023-02-28T15:41:27;5.07;;;3.15;;
69511;SDS011;56709;52.036;4.644;2023-02-28T15:46:45;4.35;;;2.88;;
69511;SDS011;56709;52.036;4.644;2023-02-28T15:49:21;4.10;;;2.85;;
69511;SDS011;56709;52.036;4.644;2023-02-28T15:51:48;4.68;;;3.17;;
69511;SDS011;56709;52.036;4.644;2023-02-28T15:54:15;4.80;;;3.13;;
69511;SDS011;56709;52.036;4.644;2023-02-28T15:56:45;5.38;;;3.47;;
69511;SDS011;56709;52.036;4.644;2023-02-28T15:59:16;6.10;;;3.17;;
69511;SDS011;56709;52.036;4.644;2023-02-28T16:01:44;6.78;;;3.00;;
69511;SDS011;56709;52.036;4.644;2023-02-28T16:04:14;5.20;;;3.00;;
69511;SDS011;56709;52.036;4.644;2023-02-28T16:06:41;7.68;;;3.08;;
69511;SDS011;56709;52.036;4.644;2023-02-28T16:09:30;4.78;;;3.08;;
69511;SDS011;56709;52.036;4.644;2023-02-28T16:11:56;5.15;;;3.00;;
69511;SDS011;56709;52.036;4.644;2023-02-28T16:14:26;7.95;;;3.22;;
69511;SDS011;56709;52.036;4.644;2023-02-28T16:16:56;4.28;;;3.20;;
69511;SDS011;56709;52.036;4.644;2023-02-28T16:19:27;8.05;;;3.40;;
69511;SDS011;56709;52.036;4.644;2023-02-28T16:21:52;8.77;;;3.60;;
69511;SDS011;56709;52.036;4.644;2023-02-28T16:24:18;5.95;;;3.60;;
69511;SDS011;56709;52.036;4.644;2023-02-28T16:26:45;5.20;;;3.60;;
69511;SDS011;56709;52.036;4.644;2023-02-28T16:29:17;5.20;;;3.38;;
69511;SDS011;56709;52.036;4.644;2023-02-28T16:31:47;5.90;;;3.72;;
69511;SDS011;56709;52.036;4.644;2023-02-28T16:34:13;6.10;;;3.60;;
69511;SDS011;56709;52.036;4.644;2023-02-28T16:36:38;5.53;;;3.50;;
69511;SDS011;56709;52.036;4.644;2023-02-28T16:39:03;5.63;;;3.33;;
69511;SDS011;56709;52.036;4.644;2023-02-28T16:41:29;7.22;;;3.72;;
69511;SDS011;56709;52.036;4.644;2023-02-28T16:43:55;6.30;;;3.65;;
69511;SDS011;56709;52.036;4.644;2023-02-28T16:46:24;7.65;;;3.90;;
69511;SDS011;56709;52.036;4.644;2023-02-28T16:48:52;8.00;;;3.85;;
69511;SDS011;56709;52.036;4.644;2023-02-28T16:51:18;6.60;;;4.13;;
69511;SDS011;56709;52.036;4.644;2023-02-28T16:53:44;5.70;;;3.90;;
69511;SDS011;56709;52.036;4.644;2023-02-28T16:56:17;8.73;;;4.07;;
69511;SDS011;56709;52.036;4.644;2023-02-28T16:58:48;7.15;;;4.50;;
69511;SDS011;56709;52.036;4.644;2023-02-28T17:01:14;6.70;;;3.97;;
69511;SDS011;56709;52.036;4.644;2023-02-28T17:03:40;6.30;;;4.70;;
69511;SDS011;56709;52.036;4.644;2023-02-28T17:06:20;6.40;;;3.88;;
69511;SDS011;56709;52.036;4.644;2023-02-28T17:08:49;6.97;;;4.20;;
69511;SDS011;56709;52.036;4.644;2023-02-28T17:11:15;7.43;;;4.50;;
69511;SDS011;56709;52.036;4.644;2023-02-28T17:13:41;6.40;;;4.25;;
69511;SDS011;56709;52.036;4.644;2023-02-28T17:16:09;8.23;;;4.43;;
69511;SDS011;56709;52.036;4.644;2023-02-28T17:18:45;7.32;;;4.22;;
69511;SDS011;56709;52.036;4.644;2023-02-28T17:21:12;7.10;;;4.32;;
69511;SDS011;56709;52.036;4.644;2023-02-28T17:23:39;7.60;;;4.68;;
69511;SDS011;56709;52.036;4.644;2023-02-28T17:26:04;8.30;;;4.28;;
69511;SDS011;56709;52.036;4.644;2023-02-28T17:28:31;9.10;;;4.78;;
69511;SDS011;56709;52.036;4.644;2023-02-28T17:30:57;7.60;;;4.85;;
69511;SDS011;56709;52.036;4.644;2023-02-28T17:33:22;7.55;;;4.55;;
69511;SDS011;56709;52.036;4.644;2023-02-28T17:35:47;7.80;;;4.85;;
69511;SDS011;56709;52.036;4.644;2023-02-28T17:38:17;7.50;;;4.47;;
69511;SDS011;56709;52.036;4.644;2023-02-28T17:40:44;8.65;;;5.18;;
69511;SDS011;56709;52.036;4.644;2023-02-28T17:43:09;9.15;;;4.95;;